Shenzhen Bao'an International Airport
ZGSZ : now visible

Aeroporto :











RITROVATECI SU...

 
LOGIN :

Iscrizione | Disclaimer

   EN    FR    IT 

 









Sommario :    VFR   VFR Marginale   IFR   IFR Intensivo   IFR Molto Intensivo
Visibilità : 
Base nubi : 
>= 8 km
>= 3000ft
5 / 8 km
1000 / 3000 ft
1500m / 5 km
500 / 1000 ft
800 / 1500m
200 / 500 ft
< 800m
< 200 ft
Simboli :   Temporali  Nebbia  Neve Forte  Precipitazioni Forti  Vento > 20 kt






- Altitudine del aeroporto : 13 ft
- Codice IATA : SZX


ZGSZ - Shenzhen Bao'an International

ULTIMO METAR :
  • 291000Z 02006MPS 9999 FEW023 24/20 Q1017 NOSIG

METARs OBSOLETI :
  • 290900Z 01006MPS 9999 FEW024 25/20 Q1017 NOSIG
  • 290800Z 02005MPS 350V050 9999 SCT024 26/20 Q1016 NOSIG

TAF TAF ZGSZ
Valido dal 29 a 06 ore il 30 a 06 ore UTC


290325Z 2906/3006 04005MPS 6000 SCT030 TX27/3006Z TN21/2922Z
FIR ZGZU / Asia



MetMap, La meteo Aeronautica in un colpo d'occhio ! - Copyright ORBIFLY Dicembre 2007 - Disclaimer

ORBIFLY MET'MAP TEAM :

Programmazione e sviluppo : Alexandra Zaïnal
Concezione : Baudouin d'Aumeries
Aiuto per la programmazione : Marc-Olivier Méhu
Supporto tecnico e logistico : Manuel Goepfert
Aiuto per la traduzione : Arnaldo La Scala

Contatto : metmap@orbifly.com




FONTI E CREDITI :

   NOAA       Earth
Advisory